sensor_id;sensor_type;location;lat;lon;timestamp;temperature;humidity
14031;DHT22;7090;49.436;8.490;2022-07-01T00:02:01;16.00;99.90
14031;DHT22;7090;49.436;8.490;2022-07-01T00:04:27;15.90;99.90
14031;DHT22;7090;49.436;8.490;2022-07-01T00:06:54;15.80;99.90
14031;DHT22;7090;49.436;8.490;2022-07-01T00:09:20;15.80;99.90
14031;DHT22;7090;49.436;8.490;2022-07-01T00:11:46;15.70;99.90
14031;DHT22;7090;49.436;8.490;2022-07-01T00:14:11;15.50;99.90
14031;DHT22;7090;49.436;8.490;2022-07-01T00:16:37;15.50;99.90
14031;DHT22;7090;49.436;8.490;2022-07-01T00:19:03;15.50;99.90
14031;DHT22;7090;49.436;8.490;2022-07-01T00:21:30;15.40;99.90
14031;DHT22;7090;49.436;8.490;2022-07-01T00:23:56;15.40;99.90
14031;DHT22;7090;49.436;8.490;2022-07-01T00:26:21;15.40;99.90
14031;DHT22;7090;49.436;8.490;2022-07-01T00:28:47;15.30;99.90
14031;DHT22;7090;49.436;8.490;2022-07-01T00:31:13;15.20;99.90
14031;DHT22;7090;49.436;8.490;2022-07-01T00:33:38;15.30;99.90
14031;DHT22;7090;49.436;8.490;2022-07-01T00:36:04;15.30;99.90
14031;DHT22;7090;49.436;8.490;2022-07-01T00:38:30;15.30;99.90
14031;DHT22;7090;49.436;8.490;2022-07-01T00:40:55;15.20;99.90
14031;DHT22;7090;49.436;8.490;2022-07-01T00:43:22;15.20;99.90
14031;DHT22;7090;49.436;8.490;2022-07-01T00:45:50;15.30;99.90
14031;DHT22;7090;49.436;8.490;2022-07-01T00:48:16;15.30;99.90
14031;DHT22;7090;49.436;8.490;2022-07-01T00:50:43;15.30;99.90
14031;DHT22;7090;49.436;8.490;2022-07-01T00:53:09;15.30;99.90
14031;DHT22;7090;49.436;8.490;2022-07-01T00:55:35;15.20;99.90
14031;DHT22;7090;49.436;8.490;2022-07-01T00:58:00;15.30;99.90
14031;DHT22;7090;49.436;8.490;2022-07-01T01:00:26;15.30;99.90
14031;DHT22;7090;49.436;8.490;2022-07-01T01:02:52;15.30;99.90
14031;DHT22;7090;49.436;8.490;2022-07-01T01:05:18;15.30;99.90
14031;DHT22;7090;49.436;8.490;2022-07-01T01:07:46;15.40;99.90
14031;DHT22;7090;49.436;8.490;2022-07-01T01:10:13;15.50;99.90
14031;DHT22;7090;49.436;8.490;2022-07-01T01:12:40;15.40;99.90
14031;DHT22;7090;49.436;8.490;2022-07-01T01:15:06;15.50;99.90
14031;DHT22;7090;49.436;8.490;2022-07-01T01:17:32;15.50;99.90
14031;DHT22;7090;49.436;8.490;2022-07-01T01:19:58;15.40;99.90
14031;DHT22;7090;49.436;8.490;2022-07-01T01:22:23;15.40;99.90
14031;DHT22;7090;49.436;8.490;2022-07-01T01:24:49;15.40;99.90
14031;DHT22;7090;49.436;8.490;2022-07-01T01:27:15;15.40;99.90
14031;DHT22;7090;49.436;8.490;2022-07-01T01:29:42;15.40;99.90
14031;DHT22;7090;49.436;8.490;2022-07-01T01:32:08;15.30;99.90
14031;DHT22;7090;49.436;8.490;2022-07-01T01:34:36;15.30;99.90
14031;DHT22;7090;49.436;8.490;2022-07-01T01:37:03;15.30;99.90
14031;DHT22;7090;49.436;8.490;2022-07-01T01:39:29;15.30;99.90
14031;DHT22;7090;49.436;8.490;2022-07-01T01:41:54;15.30;99.90
14031;DHT22;7090;49.436;8.490;2022-07-01T01:44:20;15.30;99.90
14031;DHT22;7090;49.436;8.490;2022-07-01T01:46:46;15.30;99.90
14031;DHT22;7090;49.436;8.490;2022-07-01T01:49:11;15.20;99.90
14031;DHT22;7090;49.436;8.490;2022-07-01T01:51:38;15.20;99.90
14031;DHT22;7090;49.436;8.490;2022-07-01T01:54:04;15.20;99.90
14031;DHT22;7090;49.436;8.490;2022-07-01T01:56:30;15.20;99.90
14031;DHT22;7090;49.436;8.490;2022-07-01T01:58:56;15.10;99.90
14031;DHT22;7090;49.436;8.490;2022-07-01T02:01:22;15.10;99.90
14031;DHT22;7090;49.436;8.490;2022-07-01T02:03:49;15.20;99.90
14031;DHT22;7090;49.436;8.490;2022-07-01T02:06:17;15.30;99.90
14031;DHT22;7090;49.436;8.490;2022-07-01T02:08:43;15.20;99.90
14031;DHT22;7090;49.436;8.490;2022-07-01T02:11:08;15.20;99.90
14031;DHT22;7090;49.436;8.490;2022-07-01T02:13:35;15.10;99.90
14031;DHT22;7090;49.436;8.490;2022-07-01T02:16:01;15.20;99.90
14031;DHT22;7090;49.436;8.490;2022-07-01T02:18:27;15.20;99.90
14031;DHT22;7090;49.436;8.490;2022-07-01T02:20:53;15.10;99.90
14031;DHT22;7090;49.436;8.490;2022-07-01T02:23:19;15.20;99.90
14031;DHT22;7090;49.436;8.490;2022-07-01T02:25:45;15.20;99.90
14031;DHT22;7090;49.436;8.490;2022-07-01T02:28:14;15.20;99.90
14031;DHT22;7090;49.436;8.490;2022-07-01T02:30:39;15.20;99.90
14031;DHT22;7090;49.436;8.490;2022-07-01T02:33:06;15.20;99.90
14031;DHT22;7090;49.436;8.490;2022-07-01T02:35:36;15.10;99.90
14031;DHT22;7090;49.436;8.490;2022-07-01T02:38:03;15.10;99.90
14031;DHT22;7090;49.436;8.490;2022-07-01T02:40:29;15.10;99.90
14031;DHT22;7090;49.436;8.490;2022-07-01T02:42:54;15.10;99.90
14031;DHT22;7090;49.436;8.490;2022-07-01T02:45:20;15.10;99.90
14031;DHT22;7090;49.436;8.490;2022-07-01T02:47:46;15.10;99.90
14031;DHT22;7090;49.436;8.490;2022-07-01T02:50:13;15.10;99.90
14031;DHT22;7090;49.436;8.490;2022-07-01T02:52:40;15.10;99.90
14031;DHT22;7090;49.436;8.490;2022-07-01T02:55:09;15.10;99.90
14031;DHT22;7090;49.436;8.490;2022-07-01T02:57:35;15.10;99.90
14031;DHT22;7090;49.436;8.490;2022-07-01T03:00:03;15.00;99.90
14031;DHT22;7090;49.436;8.490;2022-07-01T03:02:31;15.10;99.90
14031;DHT22;7090;49.436;8.490;2022-07-01T03:04:57;15.10;99.90
14031;DHT22;7090;49.436;8.490;2022-07-01T03:07:23;15.10;99.90
14031;DHT22;7090;49.436;8.490;2022-07-01T03:09:48;15.10;99.90
14031;DHT22;7090;49.436;8.490;2022-07-01T03:12:14;15.00;99.90
14031;DHT22;7090;49.436;8.490;2022-07-01T03:14:59;15.00;99.90
14031;DHT22;7090;49.436;8.490;2022-07-01T03:17:27;15.00;99.90
14031;DHT22;7090;49.436;8.490;2022-07-01T03:19:53;15.00;99.90
14031;DHT22;7090;49.436;8.490;2022-07-01T03:22:20;15.10;99.90
14031;DHT22;7090;49.436;8.490;2022-07-01T03:24:48;15.00;99.90
14031;DHT22;7090;49.436;8.490;2022-07-01T03:27:14;15.00;99.90
14031;DHT22;7090;49.436;8.490;2022-07-01T03:29:40;14.90;99.90
14031;DHT22;7090;49.436;8.490;2022-07-01T03:32:07;14.90;99.90
14031;DHT22;7090;49.436;8.490;2022-07-01T03:34:35;14.90;99.90
14031;DHT22;7090;49.436;8.490;2022-07-01T03:37:00;14.90;99.90
14031;DHT22;7090;49.436;8.490;2022-07-01T03:39:26;14.90;99.90
14031;DHT22;7090;49.436;8.490;2022-07-01T03:41:51;14.90;99.90
14031;DHT22;7090;49.436;8.490;2022-07-01T03:44:17;14.80;99.90
14031;DHT22;7090;49.436;8.490;2022-07-01T03:46:43;14.80;99.90
14031;DHT22;7090;49.436;8.490;2022-07-01T03:49:08;14.80;99.90
14031;DHT22;7090;49.436;8.490;2022-07-01T03:51:34;14.80;99.90
14031;DHT22;7090;49.436;8.490;2022-07-01T03:53:59;14.80;99.90
14031;DHT22;7090;49.436;8.490;2022-07-01T03:56:44;14.80;99.90
14031;DHT22;7090;49.436;8.490;2022-07-01T03:59:09;14.80;99.90
14031;DHT22;7090;49.436;8.490;2022-07-01T04:01:35;14.70;99.90
14031;DHT22;7090;49.436;8.490;2022-07-01T04:04:00;14.70;99.90
14031;DHT22;7090;49.436;8.490;2022-07-01T04:06:26;14.70;99.90
14031;DHT22;7090;49.436;8.490;2022-07-01T04:08:52;14.70;99.90
14031;DHT22;7090;49.436;8.490;2022-07-01T04:11:18;14.70;99.90
14031;DHT22;7090;49.436;8.490;2022-07-01T04:13:44;14.80;99.90
14031;DHT22;7090;49.436;8.490;2022-07-01T04:16:19;14.70;99.90
14031;DHT22;7090;49.436;8.490;2022-07-01T04:18:45;14.70;99.90
14031;DHT22;7090;49.436;8.490;2022-07-01T04:21:11;14.70;99.90
14031;DHT22;7090;49.436;8.490;2022-07-01T04:23:56;14.70;99.90
14031;DHT22;7090;49.436;8.490;2022-07-01T04:26:24;14.70;99.90
14031;DHT22;7090;49.436;8.490;2022-07-01T04:28:51;14.80;99.90
14031;DHT22;7090;49.436;8.490;2022-07-01T04:31:17;14.80;99.90
14031;DHT22;7090;49.436;8.490;2022-07-01T04:33:44;14.90;99.90
14031;DHT22;7090;49.436;8.490;2022-07-01T04:36:10;14.90;99.90
14031;DHT22;7090;49.436;8.490;2022-07-01T04:38:35;14.80;99.90
14031;DHT22;7090;49.436;8.490;2022-07-01T04:41:01;14.90;99.90
14031;DHT22;7090;49.436;8.490;2022-07-01T04:43:45;14.90;99.90
14031;DHT22;7090;49.436;8.490;2022-07-01T04:46:11;15.00;99.90
14031;DHT22;7090;49.436;8.490;2022-07-01T04:48:36;15.10;99.90
14031;DHT22;7090;49.436;8.490;2022-07-01T04:51:02;15.20;99.90
14031;DHT22;7090;49.436;8.490;2022-07-01T04:53:27;15.30;99.90
14031;DHT22;7090;49.436;8.490;2022-07-01T04:55:53;15.20;99.90
14031;DHT22;7090;49.436;8.490;2022-07-01T04:58:18;15.20;99.90
14031;DHT22;7090;49.436;8.490;2022-07-01T05:00:44;15.20;99.90
14031;DHT22;7090;49.436;8.490;2022-07-01T05:03:09;15.20;99.90
14031;DHT22;7090;49.436;8.490;2022-07-01T05:05:35;15.30;99.90
14031;DHT22;7090;49.436;8.490;2022-07-01T05:08:01;15.30;99.90
14031;DHT22;7090;49.436;8.490;2022-07-01T05:10:27;15.30;99.90
14031;DHT22;7090;49.436;8.490;2022-07-01T05:12:54;15.30;99.90
14031;DHT22;7090;49.436;8.490;2022-07-01T05:15:20;15.30;99.90
14031;DHT22;7090;49.436;8.490;2022-07-01T05:17:45;15.20;99.90
14031;DHT22;7090;49.436;8.490;2022-07-01T05:20:29;15.20;99.90
14031;DHT22;7090;49.436;8.490;2022-07-01T05:23:13;15.30;99.90
14031;DHT22;7090;49.436;8.490;2022-07-01T05:25:39;15.30;99.90
14031;DHT22;7090;49.436;8.490;2022-07-01T05:28:04;15.40;99.90
14031;DHT22;7090;49.436;8.490;2022-07-01T05:30:30;15.40;99.90
14031;DHT22;7090;49.436;8.490;2022-07-01T05:32:55;15.50;99.90
14031;DHT22;7090;49.436;8.490;2022-07-01T05:35:21;15.60;99.90
14031;DHT22;7090;49.436;8.490;2022-07-01T05:37:47;15.70;99.90
14031;DHT22;7090;49.436;8.490;2022-07-01T05:40:12;15.80;99.90
14031;DHT22;7090;49.436;8.490;2022-07-01T05:42:38;15.70;99.90
14031;DHT22;7090;49.436;8.490;2022-07-01T05:45:04;15.80;99.90
14031;DHT22;7090;49.436;8.490;2022-07-01T05:47:30;15.70;99.90
14031;DHT22;7090;49.436;8.490;2022-07-01T05:49:55;15.60;99.90
14031;DHT22;7090;49.436;8.490;2022-07-01T05:52:21;15.50;99.90
14031;DHT22;7090;49.436;8.490;2022-07-01T05:54:46;15.50;99.90
14031;DHT22;7090;49.436;8.490;2022-07-01T05:57:12;15.50;99.90
14031;DHT22;7090;49.436;8.490;2022-07-01T05:59:37;15.60;99.90
14031;DHT22;7090;49.436;8.490;2022-07-01T06:02:03;15.50;99.90
14031;DHT22;7090;49.436;8.490;2022-07-01T06:04:29;15.60;99.90
14031;DHT22;7090;49.436;8.490;2022-07-01T06:06:55;15.60;99.90
14031;DHT22;7090;49.436;8.490;2022-07-01T06:09:20;15.60;99.90
14031;DHT22;7090;49.436;8.490;2022-07-01T06:11:46;15.60;99.90
14031;DHT22;7090;49.436;8.490;2022-07-01T06:14:12;15.50;99.90
14031;DHT22;7090;49.436;8.490;2022-07-01T06:16:37;15.60;99.90
14031;DHT22;7090;49.436;8.490;2022-07-01T06:19:06;15.60;99.90
14031;DHT22;7090;49.436;8.490;2022-07-01T06:21:32;15.60;99.90
14031;DHT22;7090;49.436;8.490;2022-07-01T06:23:57;15.50;99.90
14031;DHT22;7090;49.436;8.490;2022-07-01T06:26:24;15.40;99.90
14031;DHT22;7090;49.436;8.490;2022-07-01T06:28:50;15.30;99.90
14031;DHT22;7090;49.436;8.490;2022-07-01T06:31:15;15.30;99.90
14031;DHT22;7090;49.436;8.490;2022-07-01T06:33:41;15.20;99.90
14031;DHT22;7090;49.436;8.490;2022-07-01T06:36:07;15.10;99.90
14031;DHT22;7090;49.436;8.490;2022-07-01T06:38:32;15.20;99.90
14031;DHT22;7090;49.436;8.490;2022-07-01T06:40:58;15.10;99.90
14031;DHT22;7090;49.436;8.490;2022-07-01T06:43:42;15.10;99.90
14031;DHT22;7090;49.436;8.490;2022-07-01T06:46:09;15.00;99.90
14031;DHT22;7090;49.436;8.490;2022-07-01T06:48:35;15.00;99.90
14031;DHT22;7090;49.436;8.490;2022-07-01T06:51:01;15.00;99.90
14031;DHT22;7090;49.436;8.490;2022-07-01T06:53:27;15.00;99.90
14031;DHT22;7090;49.436;8.490;2022-07-01T06:55:53;15.10;99.90
14031;DHT22;7090;49.436;8.490;2022-07-01T06:58:18;15.10;99.90
14031;DHT22;7090;49.436;8.490;2022-07-01T07:00:44;15.30;99.90
14031;DHT22;7090;49.436;8.490;2022-07-01T07:03:10;15.30;99.90
14031;DHT22;7090;49.436;8.490;2022-07-01T07:05:35;15.30;99.90
14031;DHT22;7090;49.436;8.490;2022-07-01T07:08:01;15.20;99.90
14031;DHT22;7090;49.436;8.490;2022-07-01T07:10:27;15.30;99.90
14031;DHT22;7090;49.436;8.490;2022-07-01T07:12:53;15.50;99.90
14031;DHT22;7090;49.436;8.490;2022-07-01T07:15:19;15.40;99.90
14031;DHT22;7090;49.436;8.490;2022-07-01T07:17:45;15.40;99.90
14031;DHT22;7090;49.436;8.490;2022-07-01T07:20:10;15.50;99.90
14031;DHT22;7090;49.436;8.490;2022-07-01T07:22:36;15.50;99.90
14031;DHT22;7090;49.436;8.490;2022-07-01T07:25:02;15.40;99.90
14031;DHT22;7090;49.436;8.490;2022-07-01T07:27:27;15.30;99.90
14031;DHT22;7090;49.436;8.490;2022-07-01T07:29:54;15.30;99.90
14031;DHT22;7090;49.436;8.490;2022-07-01T07:32:19;15.40;99.90
14031;DHT22;7090;49.436;8.490;2022-07-01T07:34:45;15.40;99.90
14031;DHT22;7090;49.436;8.490;2022-07-01T07:37:11;15.40;99.90
14031;DHT22;7090;49.436;8.490;2022-07-01T07:39:36;15.50;99.90
14031;DHT22;7090;49.436;8.490;2022-07-01T07:42:02;15.60;99.90
14031;DHT22;7090;49.436;8.490;2022-07-01T07:44:28;15.70;99.90
14031;DHT22;7090;49.436;8.490;2022-07-01T07:46:54;15.60;99.90
14031;DHT22;7090;49.436;8.490;2022-07-01T07:49:20;15.50;99.90
14031;DHT22;7090;49.436;8.490;2022-07-01T07:51:45;15.70;99.90
14031;DHT22;7090;49.436;8.490;2022-07-01T07:54:11;15.70;99.90
14031;DHT22;7090;49.436;8.490;2022-07-01T07:56:36;15.70;99.90
14031;DHT22;7090;49.436;8.490;2022-07-01T07:59:02;15.70;99.90
14031;DHT22;7090;49.436;8.490;2022-07-01T08:01:28;15.50;99.90
14031;DHT22;7090;49.436;8.490;2022-07-01T08:03:53;15.50;99.90
14031;DHT22;7090;49.436;8.490;2022-07-01T08:06:19;15.60;99.90
14031;DHT22;7090;49.436;8.490;2022-07-01T08:08:45;15.60;99.90
14031;DHT22;7090;49.436;8.490;2022-07-01T08:11:11;15.70;99.90
14031;DHT22;7090;49.436;8.490;2022-07-01T08:13:36;16.00;99.90
14031;DHT22;7090;49.436;8.490;2022-07-01T08:16:02;16.00;99.90
14031;DHT22;7090;49.436;8.490;2022-07-01T08:18:29;15.90;99.90
14031;DHT22;7090;49.436;8.490;2022-07-01T08:20:55;16.00;99.90
14031;DHT22;7090;49.436;8.490;2022-07-01T08:23:21;16.10;99.90
14031;DHT22;7090;49.436;8.490;2022-07-01T08:25:49;16.20;99.90
14031;DHT22;7090;49.436;8.490;2022-07-01T08:28:15;16.10;99.90
14031;DHT22;7090;49.436;8.490;2022-07-01T08:30:41;16.10;99.90
14031;DHT22;7090;49.436;8.490;2022-07-01T08:33:06;16.00;99.90
14031;DHT22;7090;49.436;8.490;2022-07-01T08:35:32;16.00;99.90
14031;DHT22;7090;49.436;8.490;2022-07-01T08:37:58;15.90;99.90
14031;DHT22;7090;49.436;8.490;2022-07-01T08:40:28;15.80;99.90
14031;DHT22;7090;49.436;8.490;2022-07-01T08:42:59;15.80;99.90
14031;DHT22;7090;49.436;8.490;2022-07-01T08:45:29;15.70;99.90
14031;DHT22;7090;49.436;8.490;2022-07-01T08:47:57;15.70;99.90
14031;DHT22;7090;49.436;8.490;2022-07-01T08:50:26;15.70;99.90
14031;DHT22;7090;49.436;8.490;2022-07-01T08:52:52;15.50;99.90
14031;DHT22;7090;49.436;8.490;2022-07-01T08:55:20;15.50;99.90
14031;DHT22;7090;49.436;8.490;2022-07-01T08:57:46;15.60;99.90
14031;DHT22;7090;49.436;8.490;2022-07-01T09:00:13;15.60;99.90
14031;DHT22;7090;49.436;8.490;2022-07-01T09:02:55;15.70;99.90
14031;DHT22;7090;49.436;8.490;2022-07-01T09:05:23;15.90;99.90
14031;DHT22;7090;49.436;8.490;2022-07-01T09:07:54;16.10;99.90
14031;DHT22;7090;49.436;8.490;2022-07-01T09:10:21;16.20;99.90
14031;DHT22;7090;49.436;8.490;2022-07-01T09:12:47;16.30;99.90
14031;DHT22;7090;49.436;8.490;2022-07-01T09:17:47;16.60;99.90
14031;DHT22;7090;49.436;8.490;2022-07-01T09:20:29;16.70;99.90
14031;DHT22;7090;49.436;8.490;2022-07-01T09:23:05;16.80;99.90
14031;DHT22;7090;49.436;8.490;2022-07-01T09:28:14;16.90;99.90
14031;DHT22;7090;49.436;8.490;2022-07-01T09:30:42;17.00;99.90
14031;DHT22;7090;49.436;8.490;2022-07-01T09:35:38;17.40;99.90
14031;DHT22;7090;49.436;8.490;2022-07-01T09:38:05;17.50;99.90
14031;DHT22;7090;49.436;8.490;2022-07-01T09:43:17;18.10;99.90
14031;DHT22;7090;49.436;8.490;2022-07-01T09:46:05;18.70;99.90
14031;DHT22;7090;49.436;8.490;2022-07-01T09:51:06;18.10;99.90
14031;DHT22;7090;49.436;8.490;2022-07-01T09:53:32;18.50;1.00
14031;DHT22;7090;49.436;8.490;2022-07-01T09:55:58;18.80;1.00
14031;DHT22;7090;49.436;8.490;2022-07-01T09:58:25;19.50;1.00
14031;DHT22;7090;49.436;8.490;2022-07-01T10:00:53;19.90;1.00
14031;DHT22;7090;49.436;8.490;2022-07-01T10:03:20;19.30;1.00
14031;DHT22;7090;49.436;8.490;2022-07-01T10:05:51;19.40;1.00
14031;DHT22;7090;49.436;8.490;2022-07-01T10:11:43;18.90;1.00
14031;DHT22;7090;49.436;8.490;2022-07-01T10:14:13;18.80;1.00
14031;DHT22;7090;49.436;8.490;2022-07-01T10:16:39;19.70;1.00
14031;DHT22;7090;49.436;8.490;2022-07-01T10:21:46;20.10;1.00
14031;DHT22;7090;49.436;8.490;2022-07-01T10:24:12;20.00;1.00
14031;DHT22;7090;49.436;8.490;2022-07-01T10:26:39;20.30;1.00
14031;DHT22;7090;49.436;8.490;2022-07-01T10:29:04;21.00;1.00
14031;DHT22;7090;49.436;8.490;2022-07-01T10:31:36;20.60;1.00
14031;DHT22;7090;49.436;8.490;2022-07-01T10:34:03;20.00;1.00
14031;DHT22;7090;49.436;8.490;2022-07-01T10:36:31;20.30;1.00
14031;DHT22;7090;49.436;8.490;2022-07-01T10:41:30;19.80;1.00
14031;DHT22;7090;49.436;8.490;2022-07-01T10:43:56;20.40;1.00
14031;DHT22;7090;49.436;8.490;2022-07-01T10:49:10;21.80;1.00
14031;DHT22;7090;49.436;8.490;2022-07-01T10:51:51;23.30;1.00
14031;DHT22;7090;49.436;8.490;2022-07-01T10:59:48;21.80;99.90
14031;DHT22;7090;49.436;8.490;2022-07-01T11:02:20;21.50;32.50
14031;DHT22;7090;49.436;8.490;2022-07-01T11:04:46;22.10;99.90
14031;DHT22;7090;49.436;8.490;2022-07-01T11:07:12;22.90;99.90
14031;DHT22;7090;49.436;8.490;2022-07-01T11:09:38;23.60;99.90
14031;DHT22;7090;49.436;8.490;2022-07-01T11:12:06;23.40;99.90
14031;DHT22;7090;49.436;8.490;2022-07-01T11:14:36;22.30;1.00
14031;DHT22;7090;49.436;8.490;2022-07-01T11:17:03;22.10;1.00
14031;DHT22;7090;49.436;8.490;2022-07-01T11:19:29;21.70;1.00
14031;DHT22;7090;49.436;8.490;2022-07-01T11:21:55;21.20;1.00
14031;DHT22;7090;49.436;8.490;2022-07-01T11:24:22;21.40;1.00
14031;DHT22;7090;49.436;8.490;2022-07-01T11:26:49;21.00;1.00
14031;DHT22;7090;49.436;8.490;2022-07-01T11:29:24;20.80;1.00
14031;DHT22;7090;49.436;8.490;2022-07-01T11:31:50;20.50;1.00
14031;DHT22;7090;49.436;8.490;2022-07-01T11:34:16;20.60;1.00
14031;DHT22;7090;49.436;8.490;2022-07-01T11:36:43;20.60;1.00
14031;DHT22;7090;49.436;8.490;2022-07-01T11:39:27;21.50;1.00
14031;DHT22;7090;49.436;8.490;2022-07-01T11:41:59;22.60;1.00
14031;DHT22;7090;49.436;8.490;2022-07-01T11:44:34;22.60;1.00
14031;DHT22;7090;49.436;8.490;2022-07-01T11:47:07;22.10;1.00
14031;DHT22;7090;49.436;8.490;2022-07-01T11:49:33;21.80;1.00
14031;DHT22;7090;49.436;8.490;2022-07-01T11:52:05;22.60;99.90
14031;DHT22;7090;49.436;8.490;2022-07-01T11:54:43;23.30;1.00
14031;DHT22;7090;49.436;8.490;2022-07-01T11:59:35;22.60;99.90
14031;DHT22;7090;49.436;8.490;2022-07-01T12:02:04;21.90;99.90
14031;DHT22;7090;49.436;8.490;2022-07-01T12:04:30;20.90;1.00
14031;DHT22;7090;49.436;8.490;2022-07-01T12:06:56;20.70;99.90
14031;DHT22;7090;49.436;8.490;2022-07-01T12:09:23;21.30;99.90
14031;DHT22;7090;49.436;8.490;2022-07-01T12:11:50;21.20;99.90
14031;DHT22;7090;49.436;8.490;2022-07-01T12:14:27;21.30;99.90
14031;DHT22;7090;49.436;8.490;2022-07-01T12:16:56;22.30;99.90
14031;DHT22;7090;49.436;8.490;2022-07-01T12:19:38;22.20;1.00
14031;DHT22;7090;49.436;8.490;2022-07-01T12:22:21;21.50;1.00
14031;DHT22;7090;49.436;8.490;2022-07-01T12:25:05;21.80;1.00
14031;DHT22;7090;49.436;8.490;2022-07-01T12:27:34;22.10;1.00
14031;DHT22;7090;49.436;8.490;2022-07-01T12:30:00;22.30;1.00
14031;DHT22;7090;49.436;8.490;2022-07-01T12:32:28;22.00;1.00
14031;DHT22;7090;49.436;8.490;2022-07-01T12:34:56;21.70;1.00
14031;DHT22;7090;49.436;8.490;2022-07-01T12:37:31;21.60;1.00
14031;DHT22;7090;49.436;8.490;2022-07-01T12:42:32;22.00;1.00
14031;DHT22;7090;49.436;8.490;2022-07-01T12:45:04;21.80;1.00
14031;DHT22;7090;49.436;8.490;2022-07-01T12:47:36;21.70;1.00
14031;DHT22;7090;49.436;8.490;2022-07-01T12:50:21;22.00;1.00
14031;DHT22;7090;49.436;8.490;2022-07-01T12:53:10;21.50;1.00
14031;DHT22;7090;49.436;8.490;2022-07-01T12:55:38;21.50;1.00
14031;DHT22;7090;49.436;8.490;2022-07-01T12:58:16;22.20;1.00
14031;DHT22;7090;49.436;8.490;2022-07-01T13:00:48;21.70;1.00
14031;DHT22;7090;49.436;8.490;2022-07-01T13:03:14;21.80;1.00
14031;DHT22;7090;49.436;8.490;2022-07-01T13:05:43;21.50;1.00
14031;DHT22;7090;49.436;8.490;2022-07-01T13:08:10;21.90;1.00
14031;DHT22;7090;49.436;8.490;2022-07-01T13:10:36;21.80;1.00
14031;DHT22;7090;49.436;8.490;2022-07-01T13:13:03;21.50;1.00
14031;DHT22;7090;49.436;8.490;2022-07-01T13:15:29;21.90;1.00
14031;DHT22;7090;49.436;8.490;2022-07-01T13:17:55;22.20;1.00
14031;DHT22;7090;49.436;8.490;2022-07-01T13:20:21;22.00;1.00
14031;DHT22;7090;49.436;8.490;2022-07-01T13:22:47;21.80;99.90
14031;DHT22;7090;49.436;8.490;2022-07-01T13:25:13;21.90;99.90
14031;DHT22;7090;49.436;8.490;2022-07-01T13:27:39;22.00;1.00
14031;DHT22;7090;49.436;8.490;2022-07-01T13:30:06;22.00;1.00
14031;DHT22;7090;49.436;8.490;2022-07-01T13:32:32;22.20;1.00
14031;DHT22;7090;49.436;8.490;2022-07-01T13:34:58;21.90;1.00
14031;DHT22;7090;49.436;8.490;2022-07-01T13:37:23;21.90;99.90
14031;DHT22;7090;49.436;8.490;2022-07-01T13:39:49;21.70;1.00
14031;DHT22;7090;49.436;8.490;2022-07-01T13:42:15;22.10;99.90
14031;DHT22;7090;49.436;8.490;2022-07-01T13:44:41;22.40;99.90
14031;DHT22;7090;49.436;8.490;2022-07-01T13:47:06;22.70;99.90
14031;DHT22;7090;49.436;8.490;2022-07-01T13:49:38;23.00;1.00
14031;DHT22;7090;49.436;8.490;2022-07-01T13:52:04;23.30;1.00
14031;DHT22;7090;49.436;8.490;2022-07-01T13:54:30;23.60;99.90
14031;DHT22;7090;49.436;8.490;2022-07-01T13:56:56;23.70;1.00
14031;DHT22;7090;49.436;8.490;2022-07-01T13:59:22;24.20;23.10
14031;DHT22;7090;49.436;8.490;2022-07-01T14:01:47;23.30;99.90
14031;DHT22;7090;49.436;8.490;2022-07-01T14:04:13;24.00;1.00
14031;DHT22;7090;49.436;8.490;2022-07-01T14:06:39;23.90;99.90
14031;DHT22;7090;49.436;8.490;2022-07-01T14:09:04;23.50;1.00
14031;DHT22;7090;49.436;8.490;2022-07-01T14:11:30;24.10;99.90
14031;DHT22;7090;49.436;8.490;2022-07-01T14:13:56;23.60;99.90
14031;DHT22;7090;49.436;8.490;2022-07-01T14:16:21;23.50;22.60
14031;DHT22;7090;49.436;8.490;2022-07-01T14:18:47;23.50;1.00
14031;DHT22;7090;49.436;8.490;2022-07-01T14:21:13;24.20;1.00
14031;DHT22;7090;49.436;8.490;2022-07-01T14:23:38;23.50;1.00
14031;DHT22;7090;49.436;8.490;2022-07-01T14:26:04;23.60;1.00
14031;DHT22;7090;49.436;8.490;2022-07-01T14:28:30;23.00;99.90
14031;DHT22;7090;49.436;8.490;2022-07-01T14:30:55;22.90;99.90
14031;DHT22;7090;49.436;8.490;2022-07-01T14:33:22;23.50;1.00
14031;DHT22;7090;49.436;8.490;2022-07-01T14:35:48;23.50;1.00
14031;DHT22;7090;49.436;8.490;2022-07-01T14:38:15;23.70;99.90
14031;DHT22;7090;49.436;8.490;2022-07-01T14:40:41;23.40;1.00
14031;DHT22;7090;49.436;8.490;2022-07-01T14:43:07;23.40;1.00
14031;DHT22;7090;49.436;8.490;2022-07-01T14:45:32;23.20;99.90
14031;DHT22;7090;49.436;8.490;2022-07-01T14:47:58;22.60;1.00
14031;DHT22;7090;49.436;8.490;2022-07-01T14:50:24;22.50;1.00
14031;DHT22;7090;49.436;8.490;2022-07-01T14:52:49;22.60;1.00
14031;DHT22;7090;49.436;8.490;2022-07-01T14:55:15;22.20;99.90
14031;DHT22;7090;49.436;8.490;2022-07-01T14:57:41;22.10;1.00
14031;DHT22;7090;49.436;8.490;2022-07-01T15:00:07;22.30;1.00
14031;DHT22;7090;49.436;8.490;2022-07-01T15:02:33;22.90;1.00
14031;DHT22;7090;49.436;8.490;2022-07-01T15:04:59;22.90;1.00
14031;DHT22;7090;49.436;8.490;2022-07-01T15:07:25;22.60;1.00
14031;DHT22;7090;49.436;8.490;2022-07-01T15:09:51;23.30;1.00
14031;DHT22;7090;49.436;8.490;2022-07-01T15:12:17;24.00;99.90
14031;DHT22;7090;49.436;8.490;2022-07-01T15:14:47;23.70;1.00
14031;DHT22;7090;49.436;8.490;2022-07-01T15:17:13;23.50;1.00
14031;DHT22;7090;49.436;8.490;2022-07-01T15:19:39;23.60;1.00
14031;DHT22;7090;49.436;8.490;2022-07-01T15:22:06;23.70;1.00
14031;DHT22;7090;49.436;8.490;2022-07-01T15:24:33;23.30;27.00
14031;DHT22;7090;49.436;8.490;2022-07-01T15:26:59;23.20;1.00
14031;DHT22;7090;49.436;8.490;2022-07-01T15:29:26;22.80;1.00
14031;DHT22;7090;49.436;8.490;2022-07-01T15:31:52;23.10;1.00
14031;DHT22;7090;49.436;8.490;2022-07-01T15:34:18;23.00;1.00
14031;DHT22;7090;49.436;8.490;2022-07-01T15:36:44;23.30;1.00
14031;DHT22;7090;49.436;8.490;2022-07-01T15:39:09;23.00;1.00
14031;DHT22;7090;49.436;8.490;2022-07-01T15:41:35;23.10;1.00
14031;DHT22;7090;49.436;8.490;2022-07-01T15:44:01;23.20;99.90
14031;DHT22;7090;49.436;8.490;2022-07-01T15:46:28;23.30;1.00
14031;DHT22;7090;49.436;8.490;2022-07-01T15:48:54;23.30;1.00
14031;DHT22;7090;49.436;8.490;2022-07-01T15:51:20;23.40;1.00
14031;DHT22;7090;49.436;8.490;2022-07-01T15:53:45;23.20;1.00
14031;DHT22;7090;49.436;8.490;2022-07-01T15:56:11;23.30;99.90
14031;DHT22;7090;49.436;8.490;2022-07-01T15:58:36;23.60;99.90
14031;DHT22;7090;49.436;8.490;2022-07-01T16:01:02;23.30;99.90
14031;DHT22;7090;49.436;8.490;2022-07-01T16:03:30;23.20;99.90
14031;DHT22;7090;49.436;8.490;2022-07-01T16:06:00;23.80;99.90
14031;DHT22;7090;49.436;8.490;2022-07-01T16:08:38;23.70;1.00
14031;DHT22;7090;49.436;8.490;2022-07-01T16:13:34;23.10;99.90
14031;DHT22;7090;49.436;8.490;2022-07-01T16:16:01;23.10;1.00
14031;DHT22;7090;49.436;8.490;2022-07-01T16:18:28;23.10;99.90
14031;DHT22;7090;49.436;8.490;2022-07-01T16:20:57;23.20;99.90
14031;DHT22;7090;49.436;8.490;2022-07-01T16:23:25;23.40;99.90
14031;DHT22;7090;49.436;8.490;2022-07-01T16:25:52;23.30;99.90
14031;DHT22;7090;49.436;8.490;2022-07-01T16:28:19;22.90;1.00